Time,TemperatureF,DewpointF,PressureIn,WindDirection,WindDirectionDegrees,WindSpeedMPH,WindSpeedGustMPH,Humidity,HourlyPrecipIn,Conditions,Clouds,dailyrainin,SoftwareType,DateUTC
2013-01-01 00:00:00,46.0,31.3,30.15,SSE,162,0.0,0.0,56,0.00,,,0.01,meteohub,2013-01-01 05:00:00,
2013-01-01 00:01:00,46.0,31.3,30.15,SSE,162,0.0,0.0,56,0.00,,,0.01,meteohub,2013-01-01 05:01:00,
2013-01-01 00:02:00,46.0,31.3,30.14,SSE,162,0.0,0.0,56,0.00,,,0.01,meteohub,2013-01-01 05:02:00,
2013-01-01 00:07:00,46.0,31.6,30.14,SSE,162,0.0,0.0,57,0.00,,,0.00,meteohub,2013-01-01 05:07:00,
2013-01-01 00:12:00,45.9,32.0,30.14,SSE,162,0.0,0.0,58,0.00,,,0.00,meteohub,2013-01-01 05:12:00,
2013-01-01 00:17:00,45.9,32.0,30.13,SSE,162,0.0,0.0,58,0.00,,,0.00,meteohub,2013-01-01 05:17:00,
2013-01-01 00:22:00,45.7,32.5,30.13,SSE,162,0.0,0.0,60,0.00,,,0.00,meteohub,2013-01-01 05:22:00,
2013-01-01 00:27:00,45.3,32.2,30.13,SSE,162,0.0,0.0,60,0.00,,,0.00,meteohub,2013-01-01 05:27:00,
2013-01-01 00:32:00,45.3,32.7,30.13,SSE,162,0.0,0.0,61,0.00,,,0.00,meteohub,2013-01-01 05:32:00,
2013-01-01 00:37:00,45.1,32.9,30.14,SSE,162,0.0,0.0,62,0.00,,,0.00,meteohub,2013-01-01 05:37:00,
2013-01-01 00:42:00,45.0,33.1,30.14,SSE,162,0.0,0.0,63,0.00,,,0.00,meteohub,2013-01-01 05:42:00,
2013-01-01 00:47:00,44.8,33.8,30.13,SSE,162,0.0,0.0,65,0.00,,,0.00,meteohub,2013-01-01 05:47:00,
2013-01-01 00:52:00,44.8,33.3,30.13,SSE,162,0.0,0.0,64,0.00,,,0.00,meteohub,2013-01-01 05:52:00,
2013-01-01 00:57:00,44.8,32.5,30.12,SSE,162,0.0,0.0,62,0.00,,,0.00,meteohub,2013-01-01 05:57:00,
2013-01-01 01:02:00,44.6,32.4,30.12,SSE,162,0.0,0.0,62,0.00,,,0.00,meteohub,2013-01-01 06:02:00,
2013-01-01 01:07:00,44.6,32.4,30.11,SSE,162,0.0,0.0,62,0.00,,,0.00,meteohub,2013-01-01 06:07:00,
2013-01-01 01:12:00,44.6,32.4,30.10,SSE,162,1.0,0.0,62,0.00,,,0.00,meteohub,2013-01-01 06:12:00,
2013-01-01 01:18:00,44.8,32.9,30.10,SSE,162,0.0,1.0,63,0.00,,,0.00,meteohub,2013-01-01 06:18:00,
2013-01-01 01:23:00,44.8,33.3,30.10,SSE,162,0.0,1.0,64,0.00,,,0.00,meteohub,2013-01-01 06:23:00,
2013-01-01 01:28:00,44.6,32.7,30.10,SSE,162,0.0,1.0,63,0.00,,,0.00,meteohub,2013-01-01 06:28:00,
2013-01-01 01:33:00,44.2,32.4,30.10,SSE,162,0.0,0.0,63,0.00,,,0.00,meteohub,2013-01-01 06:33:00,
2013-01-01 01:38:00,44.1,33.1,30.11,SSE,160,0.0,0.0,65,0.00,,,0.00,meteohub,2013-01-01 06:38:00,
2013-01-01 01:43:00,43.9,32.9,30.11,SSE,160,0.0,0.0,65,0.00,,,0.00,meteohub,2013-01-01 06:43:00,
2013-01-01 01:48:00,43.7,33.4,30.10,SSE,162,0.0,0.0,67,0.00,,,0.00,meteohub,2013-01-01 06:48:00,
2013-01-01 01:53:00,43.3,32.4,30.10,SSE,160,0.0,0.0,65,0.00,,,0.00,meteohub,2013-01-01 06:53:00,
2013-01-01 01:58:00,43.3,33.4,30.11,SSE,160,0.0,0.0,68,0.00,,,0.00,meteohub,2013-01-01 06:58:00,
2013-01-01 02:03:00,43.2,33.6,30.11,SSE,162,0.0,0.0,69,0.00,,,0.00,meteohub,2013-01-01 07:03:00,
2013-01-01 02:08:00,43.2,32.9,30.10,SSE,160,0.0,0.0,67,0.00,,,0.00,meteohub,2013-01-01 07:08:00,
2013-01-01 02:13:00,43.2,32.5,30.11,SSE,160,0.0,0.0,66,0.00,,,0.00,meteohub,2013-01-01 07:13:00,
2013-01-01 02:18:00,43.2,32.9,30.11,SSE,162,0.0,0.0,67,0.00,,,0.00,meteohub,2013-01-01 07:18:00,
2013-01-01 02:23:00,43.3,34.2,30.11,SSE,162,0.0,0.0,70,0.00,,,0.00,meteohub,2013-01-01 07:23:00,
2013-01-01 02:28:00,43.3,34.2,30.11,SSE,162,0.0,0.0,70,0.00,,,0.00,meteohub,2013-01-01 07:28:00,
2013-01-01 02:33:00,43.3,33.1,30.11,SSE,160,0.0,1.0,67,0.00,,,0.00,meteohub,2013-01-01 07:33:00,
2013-01-01 02:38:00,43.3,33.8,30.11,SSE,162,0.0,1.0,69,0.00,,,0.00,meteohub,2013-01-01 07:38:00,
2013-01-01 02:43:00,43.3,32.4,30.12,SSE,162,0.0,0.0,65,0.00,,,0.00,meteohub,2013-01-01 07:43:00,
2013-01-01 02:48:00,43.5,31.3,30.11,SSE,162,0.0,0.0,62,0.00,,,0.00,meteohub,2013-01-01 07:48:00,
2013-01-01 02:53:00,43.9,31.3,30.11,SSE,162,0.0,0.0,61,0.00,,,0.00,meteohub,2013-01-01 07:53:00,
2013-01-01 02:58:00,43.9,32.2,30.11,SSE,162,0.0,0.0,63,0.00,,,0.00,meteohub,2013-01-01 07:58:00,
2013-01-01 03:03:00,43.9,31.6,30.11,SSE,162,0.0,0.0,62,0.00,,,0.00,meteohub,2013-01-01 08:03:00,
2013-01-01 03:08:00,43.9,31.6,30.11,SSE,162,0.0,0.0,62,0.00,,,0.00,meteohub,2013-01-01 08:08:00,
2013-01-01 03:13:00,44.1,31.5,30.10,SSE,162,0.0,0.0,61,0.00,,,0.00,meteohub,2013-01-01 08:13:00,
2013-01-01 03:18:00,44.2,31.6,30.09,SSE,162,0.0,0.0,61,0.00,,,0.00,meteohub,2013-01-01 08:18:00,
2013-01-01 03:23:00,44.2,32.0,30.09,SSE,162,0.0,0.0,62,0.00,,,0.00,meteohub,2013-01-01 08:23:00,
2013-01-01 03:28:00,44.1,32.4,30.09,SSE,162,0.0,0.0,63,0.00,,,0.00,meteohub,2013-01-01 08:28:00,
2013-01-01 03:33:00,44.1,32.7,30.09,SSE,162,0.0,0.0,64,0.00,,,0.00,meteohub,2013-01-01 08:33:00,
2013-01-01 03:38:00,43.9,33.3,30.10,SSE,162,0.0,0.0,66,0.00,,,0.00,meteohub,2013-01-01 08:38:00,
2013-01-01 03:43:00,43.7,33.1,30.10,SSE,162,0.0,0.0,66,0.00,,,0.00,meteohub,2013-01-01 08:43:00,
2013-01-01 03:48:00,43.7,33.4,30.10,SSE,162,0.0,0.0,67,0.00,,,0.00,meteohub,2013-01-01 08:48:00,
2013-01-01 03:53:00,43.7,33.4,30.10,SSE,162,0.0,0.0,67,0.00,,,0.00,meteohub,2013-01-01 08:53:00,
2013-01-01 03:58:00,43.7,33.1,30.09,SSE,161,0.0,0.0,66,0.00,,,0.00,meteohub,2013-01-01 08:58:00,
2013-01-01 04:03:00,43.9,34.3,30.09,SSE,160,0.0,0.0,69,0.00,,,0.00,meteohub,2013-01-01 09:03:00,
2013-01-01 04:08:00,43.9,34.7,30.09,SSE,162,0.0,0.0,70,0.00,,,0.00,meteohub,2013-01-01 09:08:00,
2013-01-01 04:13:00,43.9,34.7,30.09,SSE,162,0.0,0.0,70,0.00,,,0.00,meteohub,2013-01-01 09:13:00,
2013-01-01 04:18:00,44.1,35.6,30.09,SSE,160,0.0,0.0,72,0.00,,,0.00,meteohub,2013-01-01 09:18:00,
2013-01-01 04:23:00,44.1,35.6,30.09,SSE,160,0.0,0.0,72,0.00,,,0.00,meteohub,2013-01-01 09:23:00,
2013-01-01 04:28:00,44.1,34.5,30.09,SSE,162,0.0,0.0,69,0.00,,,0.00,meteohub,2013-01-01 09:28:00,
2013-01-01 04:33:00,44.1,33.8,30.09,SSE,162,0.0,0.0,67,0.00,,,0.00,meteohub,2013-01-01 09:33:00,
2013-01-01 04:38:00,44.2,34.0,30.08,SSE,162,0.0,0.0,67,0.00,,,0.00,meteohub,2013-01-01 09:38:00,
2013-01-01 04:43:00,44.4,33.4,30.08,SSE,162,0.0,0.0,65,0.00,,,0.00,meteohub,2013-01-01 09:43:00,
2013-01-01 04:48:00,44.8,34.2,30.08,SSE,162,0.0,0.0,66,0.00,,,0.00,meteohub,2013-01-01 09:48:00,
2013-01-01 04:53:00,45.0,35.1,30.08,SSE,162,0.0,0.0,68,0.00,,,0.00,meteohub,2013-01-01 09:53:00,
2013-01-01 04:58:00,45.0,35.1,30.08,SSE,162,0.0,0.0,68,0.00,,,0.00,meteohub,2013-01-01 09:58:00,
2013-01-01 05:03:00,45.0,34.7,30.08,SSE,162,0.0,0.0,67,0.00,,,0.00,meteohub,2013-01-01 10:03:00,
2013-01-01 05:08:00,45.0,34.3,30.08,SSE,162,0.0,0.0,66,0.00,,,0.00,meteohub,2013-01-01 10:08:00,
2013-01-01 05:13:00,45.1,34.9,30.07,SSE,162,0.0,0.0,67,0.00,,,0.00,meteohub,2013-01-01 10:13:00,
2013-01-01 05:18:00,45.3,35.1,30.07,SSE,162,0.0,0.0,67,0.00,,,0.00,meteohub,2013-01-01 10:18:00,
2013-01-01 05:23:00,45.3,35.4,30.07,SSE,162,0.0,0.0,68,0.00,,,0.00,meteohub,2013-01-01 10:23:00,
2013-01-01 05:28:00,45.5,36.0,30.07,SSE,162,0.0,0.0,69,0.00,,,0.00,meteohub,2013-01-01 10:28:00,
2013-01-01 05:33:00,45.3,35.8,30.06,SSE,162,0.0,0.0,69,0.00,,,0.00,meteohub,2013-01-01 10:33:00,
2013-01-01 05:38:00,45.3,35.4,30.06,SSE,162,0.0,0.0,68,0.00,,,0.00,meteohub,2013-01-01 10:38:00,
2013-01-01 05:43:00,45.5,36.3,30.06,SSE,162,0.0,0.0,70,0.00,,,0.00,meteohub,2013-01-01 10:43:00,
2013-01-01 05:48:00,45.7,36.9,30.06,SSE,162,0.0,0.0,71,0.00,,,0.00,meteohub,2013-01-01 10:48:00,
2013-01-01 05:53:00,45.7,36.9,30.07,SSE,162,0.0,0.0,71,0.00,,,0.00,meteohub,2013-01-01 10:53:00,
2013-01-01 05:58:00,45.7,36.5,30.06,SSE,162,0.0,0.0,70,0.00,,,0.00,meteohub,2013-01-01 10:58:00,
2013-01-01 06:03:00,45.5,36.3,30.06,SSE,162,0.0,0.0,70,0.00,,,0.00,meteohub,2013-01-01 11:03:00,
2013-01-01 06:08:00,45.7,36.5,30.06,SSE,162,0.0,0.0,70,0.00,,,0.00,meteohub,2013-01-01 11:08:00,
2013-01-01 06:13:00,45.7,36.9,30.06,SSE,162,0.0,0.0,71,0.00,,,0.00,meteohub,2013-01-01 11:13:00,
2013-01-01 06:18:00,45.7,36.9,30.06,SSE,162,0.0,0.0,71,0.00,,,0.00,meteohub,2013-01-01 11:18:00,
2013-01-01 06:23:00,45.9,37.0,30.06,SSE,162,0.0,0.0,71,0.00,,,0.00,meteohub,2013-01-01 11:23:00,
2013-01-01 06:28:00,46.0,36.9,30.07,SSE,162,0.0,1.0,70,0.00,,,0.00,meteohub,2013-01-01 11:28:00,
2013-01-01 06:33:00,46.0,36.9,30.07,SSE,162,0.0,1.0,70,0.00,,,0.00,meteohub,2013-01-01 11:33:00,
2013-01-01 06:38:00,46.2,37.8,30.07,SSE,162,0.0,0.0,72,0.00,,,0.00,meteohub,2013-01-01 11:38:00,
2013-01-01 06:43:00,46.2,37.4,30.07,SSE,162,0.0,1.0,71,0.00,,,0.00,meteohub,2013-01-01 11:43:00,
2013-01-01 06:48:00,46.6,38.1,30.07,SSE,162,0.0,1.0,72,0.00,,,0.00,meteohub,2013-01-01 11:48:00,
2013-01-01 06:53:00,46.8,38.3,30.07,SSE,162,0.0,1.0,72,0.00,,,0.00,meteohub,2013-01-01 11:53:00,
2013-01-01 06:58:00,46.9,38.7,30.07,SSE,160,1.0,1.0,73,0.00,,,0.00,meteohub,2013-01-01 11:58:00,
2013-01-01 07:03:00,47.1,38.8,30.07,South,188,0.0,2.0,73,0.00,,,0.00,meteohub,2013-01-01 12:03:00,
2013-01-01 07:08:00,47.1,38.5,30.07,WNW,301,1.0,2.0,72,0.00,,,0.00,meteohub,2013-01-01 12:08:00,
2013-01-01 07:13:00,47.1,39.2,30.07,SSW,193,0.0,2.0,74,0.00,,,0.00,meteohub,2013-01-01 12:13:00,
2013-01-01 07:18:00,47.1,39.2,30.07,SSW,194,0.0,2.0,74,0.00,,,0.00,meteohub,2013-01-01 12:18:00,
2013-01-01 07:23:00,47.1,39.2,30.07,SSW,194,0.0,1.0,74,0.00,,,0.00,meteohub,2013-01-01 12:23:00,
2013-01-01 07:28:00,47.1,39.6,30.07,NNW,328,0.0,1.0,75,0.00,,,0.00,meteohub,2013-01-01 12:28:00,
2013-01-01 07:33:00,47.3,39.7,30.07,NNW,328,0.0,1.0,75,0.00,,,0.00,meteohub,2013-01-01 12:33:00,
2013-01-01 07:38:00,47.5,39.9,30.07,NNW,328,0.0,1.0,75,0.00,,,0.00,meteohub,2013-01-01 12:38:00,
2013-01-01 07:43:00,47.5,40.6,30.07,NNW,328,0.0,1.0,77,0.00,,,0.00,meteohub,2013-01-01 12:43:00,
2013-01-01 07:48:00,47.3,41.4,30.08,NW,322,0.0,1.0,80,0.00,,,0.00,meteohub,2013-01-01 12:48:00,
2013-01-01 07:54:00,47.1,42.3,30.08,NW,322,0.0,1.0,83,0.00,,,0.00,meteohub,2013-01-01 12:54:00,
2013-01-01 07:59:00,46.8,42.4,30.08,NW,322,0.0,1.0,85,0.01,,,0.01,meteohub,2013-01-01 12:59:00,
2013-01-01 08:04:00,46.2,42.3,30.08,NW,322,0.0,1.0,86,0.01,,,0.01,meteohub,2013-01-01 13:04:00,
2013-01-01 08:09:00,46.0,42.6,30.08,NW,322,0.0,0.0,88,0.02,,,0.02,meteohub,2013-01-01 13:09:00,
2013-01-01 08:14:00,46.0,43.0,30.08,NW,322,0.0,0.0,89,0.03,,,0.03,meteohub,2013-01-01 13:14:00,
2013-01-01 08:19:00,45.9,42.8,30.08,NW,322,0.0,0.0,89,0.04,,,0.04,meteohub,2013-01-01 13:19:00,
2013-01-01 08:24:00,45.7,43.0,30.08,NW,321,0.0,0.0,90,0.05,,,0.05,meteohub,2013-01-01 13:24:00,
2013-01-01 08:29:00,45.7,43.0,30.08,NW,321,0.0,0.0,90,0.07,,,0.07,meteohub,2013-01-01 13:29:00,
2013-01-01 08:34:00,45.7,43.2,30.07,NW,322,0.0,0.0,91,0.08,,,0.08,meteohub,2013-01-01 13:34:00,
2013-01-01 08:39:00,45.5,43.0,30.07,NW,322,0.0,0.0,91,0.09,,,0.09,meteohub,2013-01-01 13:39:00,
2013-01-01 08:44:00,45.3,43.2,30.07,NW,322,0.0,0.0,92,0.10,,,0.10,meteohub,2013-01-01 13:44:00,
2013-01-01 08:49:00,45.3,43.2,30.07,NW,322,0.0,0.0,92,0.11,,,0.11,meteohub,2013-01-01 13:49:00,
2013-01-01 08:54:00,45.1,43.0,30.07,NW,321,0.0,0.0,92,0.13,,,0.13,meteohub,2013-01-01 13:54:00,
2013-01-01 08:59:00,45.1,43.2,30.07,NW,322,0.0,0.0,93,0.13,,,0.14,meteohub,2013-01-01 13:59:00,
2013-01-01 09:04:00,45.1,43.2,30.07,NW,322,0.0,0.0,93,0.14,,,0.15,meteohub,2013-01-01 14:04:00,
2013-01-01 09:09:00,45.1,43.2,30.06,NW,321,0.0,0.0,93,0.15,,,0.17,meteohub,2013-01-01 14:09:00,
2013-01-01 09:14:00,45.1,43.2,30.07,NW,322,0.0,0.0,93,0.15,,,0.18,meteohub,2013-01-01 14:14:00,
2013-01-01 09:19:00,45.1,43.5,30.08,NW,321,0.0,0.0,94,0.15,,,0.19,meteohub,2013-01-01 14:19:00,
2013-01-01 09:24:00,45.1,43.5,30.07,NW,322,0.0,0.0,94,0.13,,,0.19,meteohub,2013-01-01 14:24:00,
2013-01-01 09:29:00,45.0,43.3,30.07,NW,321,0.0,0.0,94,0.13,,,0.20,meteohub,2013-01-01 14:29:00,
2013-01-01 09:34:00,45.1,43.5,30.08,NW,322,0.0,1.0,94,0.14,,,0.22,meteohub,2013-01-01 14:34:00,
2013-01-01 09:39:00,45.1,43.9,30.08,NW,322,0.0,1.0,95,0.14,,,0.23,meteohub,2013-01-01 14:39:00,
2013-01-01 09:44:00,45.1,43.9,30.08,NW,324,0.0,1.0,95,0.13,,,0.23,meteohub,2013-01-01 14:44:00,
2013-01-01 09:49:00,45.3,44.1,30.08,NW,323,0.0,0.0,95,0.12,,,0.24,meteohub,2013-01-01 14:49:00,
2013-01-01 09:54:00,45.7,44.4,30.08,NW,323,0.0,0.0,95,0.12,,,0.25,meteohub,2013-01-01 14:54:00,
2013-01-01 09:59:00,45.7,44.4,30.09,NW,323,0.0,0.0,95,0.12,,,0.27,meteohub,2013-01-01 14:59:00,
2013-01-01 10:04:00,45.9,44.4,30.08,NW,323,0.0,0.0,95,0.13,,,0.28,meteohub,2013-01-01 15:04:00,
2013-01-01 10:09:00,45.9,44.4,30.08,NW,323,0.0,0.0,95,0.12,,,0.29,meteohub,2013-01-01 15:09:00,
2013-01-01 10:14:00,46.0,45.0,30.09,SSW,198,0.0,0.0,96,0.13,,,0.31,meteohub,2013-01-01 15:14:00,
2013-01-01 10:19:00,46.0,45.0,30.09,SSW,198,0.0,1.0,96,0.13,,,0.32,meteohub,2013-01-01 15:19:00,
2013-01-01 10:24:00,46.0,45.0,30.07,SSW,198,0.0,1.0,96,0.14,,,0.34,meteohub,2013-01-01 15:24:00,
2013-01-01 10:29:00,46.2,45.1,30.07,SSW,198,0.0,1.0,96,0.16,,,0.37,meteohub,2013-01-01 15:29:00,
2013-01-01 10:34:00,46.2,45.1,30.07,SSW,198,0.0,0.0,96,0.15,,,0.37,meteohub,2013-01-01 15:34:00,
2013-01-01 10:39:00,46.2,45.1,30.08,SSW,198,0.0,0.0,96,0.16,,,0.39,meteohub,2013-01-01 15:39:00,
2013-01-01 10:44:00,46.4,45.3,30.08,SSW,198,0.0,0.0,96,0.16,,,0.40,meteohub,2013-01-01 15:44:00,
2013-01-01 10:49:00,46.4,45.3,30.07,SSW,198,0.0,0.0,96,0.18,,,0.42,meteohub,2013-01-01 15:49:00,
2013-01-01 10:54:00,46.4,45.3,30.07,SSW,198,0.0,0.0,96,0.17,,,0.43,meteohub,2013-01-01 15:54:00,
2013-01-01 10:59:00,46.6,45.5,30.07,SSW,198,0.0,0.0,96,0.17,,,0.44,meteohub,2013-01-01 15:59:00,
2013-01-01 11:05:00,46.6,45.5,30.06,SSW,198,0.0,0.0,96,0.16,,,0.45,meteohub,2013-01-01 16:05:00,
2013-01-01 11:10:00,46.6,45.5,30.06,SSW,198,0.0,0.0,96,0.15,,,0.45,meteohub,2013-01-01 16:10:00,
2013-01-01 11:15:00,46.8,45.7,30.06,South,170,0.0,0.0,96,0.14,,,0.46,meteohub,2013-01-01 16:15:00,
2013-01-01 11:20:00,46.8,45.7,30.06,South,170,0.0,1.0,96,0.13,,,0.46,meteohub,2013-01-01 16:20:00,
2013-01-01 11:25:00,46.9,46.2,30.05,South,170,0.0,1.0,97,0.12,,,0.47,meteohub,2013-01-01 16:25:00,
2013-01-01 11:30:00,46.9,45.9,30.06,SSE,160,0.0,1.0,96,0.10,,,0.47,meteohub,2013-01-01 16:30:00,
2013-01-01 11:35:00,46.9,45.9,30.05,SSE,159,0.0,1.0,96,0.10,,,0.48,meteohub,2013-01-01 16:35:00,
2013-01-01 11:40:00,46.9,46.2,30.05,SSE,159,0.0,1.0,97,0.08,,,0.48,meteohub,2013-01-01 16:40:00,
2013-01-01 11:45:00,47.1,46.4,30.05,SSE,160,0.0,1.0,97,0.08,,,0.49,meteohub,2013-01-01 16:45:00,
2013-01-01 11:50:00,47.1,46.4,30.05,SSE,159,0.0,1.0,97,0.08,,,0.50,meteohub,2013-01-01 16:50:00,
2013-01-01 11:55:00,47.1,46.4,30.04,SSE,159,0.0,0.0,97,0.08,,,0.51,meteohub,2013-01-01 16:55:00,
2013-01-01 12:00:00,47.3,46.6,30.04,SSE,160,0.0,0.0,97,0.08,,,0.52,meteohub,2013-01-01 17:00:00,
2013-01-01 12:05:00,47.5,46.8,30.04,SSE,159,0.0,0.0,97,0.07,,,0.52,meteohub,2013-01-01 17:05:00,
2013-01-01 12:10:00,47.7,46.9,30.04,SSE,159,0.0,0.0,97,0.07,,,0.53,meteohub,2013-01-01 17:10:00,
2013-01-01 12:15:00,47.7,46.9,30.04,SSE,160,0.0,1.0,97,0.08,,,0.54,meteohub,2013-01-01 17:15:00,
2013-01-01 12:20:00,47.8,46.9,30.04,SSE,159,0.0,1.0,97,0.08,,,0.55,meteohub,2013-01-01 17:20:00,
2013-01-01 12:25:00,47.8,46.9,30.03,SSE,159,0.0,1.0,97,0.08,,,0.55,meteohub,2013-01-01 17:25:00,
2013-01-01 12:30:00,48.0,47.1,30.03,SSE,160,0.0,1.0,97,0.09,,,0.56,meteohub,2013-01-01 17:30:00,
2013-01-01 12:35:00,48.0,47.1,30.03,SSE,160,0.0,0.0,97,0.08,,,0.56,meteohub,2013-01-01 17:35:00,
2013-01-01 12:40:00,48.0,47.1,30.02,SSE,159,0.0,0.0,97,0.08,,,0.57,meteohub,2013-01-01 17:40:00,
2013-01-01 12:45:00,48.2,47.3,30.02,SSE,159,0.0,0.0,97,0.09,,,0.58,meteohub,2013-01-01 17:45:00,
2013-01-01 12:50:00,48.4,47.5,30.02,SSE,160,0.0,0.0,97,0.07,,,0.58,meteohub,2013-01-01 17:50:00,
2013-01-01 12:55:00,48.4,47.5,30.01,SSE,160,0.0,0.0,97,0.06,,,0.58,meteohub,2013-01-01 17:55:00,
2013-01-01 13:00:00,48.6,47.7,30.00,SSE,160,0.0,0.0,97,0.07,,,0.59,meteohub,2013-01-01 18:00:00,
2013-01-01 13:05:00,48.6,47.7,30.00,SSE,160,0.0,0.0,97,0.06,,,0.59,meteohub,2013-01-01 18:05:00,
2013-01-01 13:10:00,48.7,47.8,29.99,SSE,160,0.0,0.0,97,0.06,,,0.59,meteohub,2013-01-01 18:10:00,
2013-01-01 13:15:00,48.7,47.8,29.99,SSE,160,0.0,0.0,97,0.05,,,0.59,meteohub,2013-01-01 18:15:00,
2013-01-01 13:20:00,48.9,48.0,29.99,SSE,160,0.0,0.0,97,0.05,,,0.60,meteohub,2013-01-01 18:20:00,
2013-01-01 13:25:00,48.9,48.0,29.99,SSE,160,0.0,0.0,97,0.04,,,0.60,meteohub,2013-01-01 18:25:00,
2013-01-01 13:30:00,48.9,48.0,29.99,SSE,160,0.0,0.0,97,0.04,,,0.60,meteohub,2013-01-01 18:30:00,
2013-01-01 13:35:00,49.1,48.2,29.99,SSE,160,0.0,0.0,97,0.03,,,0.60,meteohub,2013-01-01 18:35:00,
2013-01-01 13:40:00,49.1,48.2,29.99,SSE,160,0.0,0.0,97,0.02,,,0.60,meteohub,2013-01-01 18:40:00,
2013-01-01 13:45:00,49.1,48.2,29.99,SSE,161,0.0,0.0,97,0.03,,,0.61,meteohub,2013-01-01 18:45:00,
2013-01-01 13:50:00,49.1,48.2,29.99,SSE,160,0.0,0.0,97,0.04,,,0.62,meteohub,2013-01-01 18:50:00,
2013-01-01 13:55:00,49.3,48.4,29.99,SSE,160,0.0,0.0,97,0.04,,,0.63,meteohub,2013-01-01 18:55:00,
2013-01-01 14:00:00,49.3,48.4,29.99,SSE,160,0.0,0.0,97,0.06,,,0.65,meteohub,2013-01-01 19:00:00,
2013-01-01 14:05:00,49.3,48.4,29.99,SSE,162,0.0,0.0,97,0.07,,,0.66,meteohub,2013-01-01 19:05:00,
2013-01-01 14:10:00,49.3,48.4,29.99,SSE,162,0.0,0.0,97,0.08,,,0.67,meteohub,2013-01-01 19:10:00,
2013-01-01 14:15:00,49.5,48.6,29.99,SSE,162,0.0,0.0,97,0.08,,,0.67,meteohub,2013-01-01 19:15:00,
2013-01-01 14:20:00,49.5,48.6,29.99,SSE,162,0.0,0.0,97,0.08,,,0.68,meteohub,2013-01-01 19:20:00,
2013-01-01 14:25:00,49.6,48.7,29.98,SSE,162,0.0,0.0,97,0.09,,,0.69,meteohub,2013-01-01 19:25:00,
2013-01-01 14:31:00,49.6,48.7,29.98,SSE,162,0.0,0.0,97,0.09,,,0.69,meteohub,2013-01-01 19:31:00,
2013-01-01 14:36:00,49.6,48.7,29.99,SSE,162,0.0,0.0,97,0.10,,,0.70,meteohub,2013-01-01 19:36:00,
2013-01-01 14:41:00,49.6,48.7,29.99,SSE,162,0.0,0.0,97,0.10,,,0.70,meteohub,2013-01-01 19:41:00,
2013-01-01 14:46:00,49.6,48.7,29.98,SSE,162,0.0,1.0,97,0.10,,,0.71,meteohub,2013-01-01 19:46:00,
2013-01-01 14:51:00,49.6,48.7,29.98,SSE,162,0.0,1.0,97,0.11,,,0.73,meteohub,2013-01-01 19:51:00,
2013-01-01 14:56:00,49.6,48.7,29.98,SSE,162,0.0,1.0,97,0.11,,,0.74,meteohub,2013-01-01 19:56:00,
2013-01-01 15:01:00,49.6,48.7,29.98,SSE,162,0.0,0.0,97,0.11,,,0.76,meteohub,2013-01-01 20:01:00,
2013-01-01 15:06:00,49.6,48.7,29.98,SSE,162,0.0,0.0,97,0.11,,,0.77,meteohub,2013-01-01 20:06:00,
2013-01-01 15:11:00,49.6,48.7,29.98,SSE,162,0.0,0.0,97,0.10,,,0.77,meteohub,2013-01-01 20:11:00,
2013-01-01 15:16:00,49.6,48.7,29.98,SSE,162,0.0,0.0,97,0.11,,,0.78,meteohub,2013-01-01 20:16:00,
2013-01-01 15:21:00,49.6,48.7,29.98,SSE,162,0.0,0.0,97,0.10,,,0.78,meteohub,2013-01-01 20:21:00,
2013-01-01 15:26:00,49.6,48.7,29.98,SSE,162,0.0,0.0,97,0.10,,,0.79,meteohub,2013-01-01 20:26:00,
2013-01-01 15:31:00,49.6,48.7,29.99,SSE,162,0.0,0.0,97,0.10,,,0.80,meteohub,2013-01-01 20:31:00,
2013-01-01 15:36:00,49.6,48.7,29.99,SSE,162,0.0,0.0,97,0.10,,,0.80,meteohub,2013-01-01 20:36:00,
2013-01-01 15:41:00,49.6,48.7,29.98,SSE,162,0.0,0.0,97,0.10,,,0.80,meteohub,2013-01-01 20:41:00,
2013-01-01 15:46:00,49.6,48.7,29.98,SSE,162,0.0,0.0,97,0.10,,,0.80,meteohub,2013-01-01 20:46:00,
2013-01-01 15:51:00,49.6,48.7,29.98,SSE,162,0.0,0.0,97,0.08,,,0.81,meteohub,2013-01-01 20:51:00,
2013-01-01 15:56:00,49.6,48.7,29.97,SSE,162,0.0,0.0,97,0.06,,,0.81,meteohub,2013-01-01 20:56:00,
2013-01-01 16:01:00,49.6,48.7,29.97,SSE,162,0.0,0.0,97,0.06,,,0.82,meteohub,2013-01-01 21:01:00,
2013-01-01 16:06:00,49.6,48.7,29.98,SSE,162,0.0,0.0,97,0.05,,,0.82,meteohub,2013-01-01 21:06:00,
2013-01-01 16:11:00,49.8,48.9,29.98,SSE,162,0.0,0.0,97,0.05,,,0.82,meteohub,2013-01-01 21:11:00,
2013-01-01 16:16:00,49.6,48.7,29.98,SSE,162,0.0,0.0,97,0.05,,,0.83,meteohub,2013-01-01 21:16:00,
2013-01-01 16:21:00,49.6,48.7,29.97,SSE,162,0.0,1.0,97,0.05,,,0.83,meteohub,2013-01-01 21:21:00,
2013-01-01 16:26:00,49.6,48.7,29.97,SSE,162,0.0,1.0,97,0.04,,,0.83,meteohub,2013-01-01 21:26:00,
2013-01-01 16:31:00,49.6,48.7,29.97,SSE,162,0.0,1.0,97,0.04,,,0.84,meteohub,2013-01-01 21:31:00,
2013-01-01 16:36:00,49.6,48.7,29.97,SSE,162,0.0,0.0,97,0.05,,,0.85,meteohub,2013-01-01 21:36:00,
2013-01-01 16:41:00,49.5,48.6,29.97,SSE,162,0.0,0.0,97,0.05,,,0.85,meteohub,2013-01-01 21:41:00,
2013-01-01 16:46:00,49.5,48.6,29.97,SSE,162,0.0,0.0,97,0.04,,,0.86,meteohub,2013-01-01 21:46:00,
2013-01-01 16:51:00,49.5,48.6,29.97,SSE,162,0.0,0.0,97,0.05,,,0.86,meteohub,2013-01-01 21:51:00,
2013-01-01 16:56:00,49.5,48.6,29.97,SSE,162,0.0,0.0,97,0.04,,,0.86,meteohub,2013-01-01 21:56:00,
2013-01-01 17:01:00,49.5,48.6,29.97,SSE,162,0.0,0.0,97,0.04,,,0.86,meteohub,2013-01-01 22:01:00,
2013-01-01 17:06:00,49.5,48.9,29.96,SSE,162,0.0,0.0,98,0.05,,,0.87,meteohub,2013-01-01 22:06:00,
2013-01-01 17:11:00,49.5,48.6,29.96,SSE,162,0.0,0.0,97,0.04,,,0.87,meteohub,2013-01-01 22:11:00,
2013-01-01 17:16:00,49.5,48.9,29.94,SSE,162,0.0,0.0,98,0.04,,,0.87,meteohub,2013-01-01 22:16:00,
2013-01-01 17:21:00,49.3,48.7,29.94,SSE,162,0.0,0.0,98,0.04,,,0.88,meteohub,2013-01-01 22:21:00,
2013-01-01 17:26:00,49.3,48.7,29.95,SSE,162,0.0,0.0,98,0.04,,,0.88,meteohub,2013-01-01 22:26:00,
2013-01-01 17:31:00,49.3,48.7,29.94,SSE,162,0.0,0.0,98,0.03,,,0.88,meteohub,2013-01-01 22:31:00,
2013-01-01 17:37:00,49.5,48.9,29.94,SSE,162,0.0,0.0,98,0.03,,,0.88,meteohub,2013-01-01 22:37:00,
2013-01-01 17:42:00,49.5,48.9,29.94,SSE,162,0.0,0.0,98,0.03,,,0.88,meteohub,2013-01-01 22:42:00,
2013-01-01 17:47:00,49.3,48.7,29.96,SSE,162,0.0,0.0,98,0.02,,,0.88,meteohub,2013-01-01 22:47:00,
2013-01-01 17:52:00,49.3,48.7,29.96,SSE,162,0.0,0.0,98,0.02,,,0.88,meteohub,2013-01-01 22:52:00,
2013-01-01 17:57:00,49.3,48.7,29.96,SSE,162,0.0,0.0,98,0.02,,,0.88,meteohub,2013-01-01 22:57:00,
2013-01-01 18:02:00,49.3,48.7,29.96,SSE,162,0.0,0.0,98,0.03,,,0.89,meteohub,2013-01-01 23:02:00,
2013-01-01 18:07:00,49.3,48.7,29.95,SSE,162,0.0,0.0,98,0.02,,,0.89,meteohub,2013-01-01 23:07:00,
2013-01-01 18:12:00,49.5,48.9,29.96,SSE,162,0.0,0.0,98,0.02,,,0.89,meteohub,2013-01-01 23:12:00,
2013-01-01 18:17:00,49.5,48.9,29.96,SSE,162,0.0,0.0,98,0.03,,,0.90,meteohub,2013-01-01 23:17:00,
2013-01-01 18:22:00,49.5,48.9,29.96,SSE,162,0.0,0.0,98,0.02,,,0.90,meteohub,2013-01-01 23:22:00,
2013-01-01 18:27:00,49.5,48.9,29.97,SSE,162,0.0,0.0,98,0.02,,,0.90,meteohub,2013-01-01 23:27:00,
2013-01-01 18:32:00,49.5,48.9,29.96,SSE,162,0.0,0.0,98,0.03,,,0.90,meteohub,2013-01-01 23:32:00,
2013-01-01 18:37:00,49.5,48.9,29.96,SSE,162,0.0,0.0,98,0.03,,,0.91,meteohub,2013-01-01 23:37:00,
2013-01-01 18:42:00,49.5,48.9,29.96,SSE,162,0.0,0.0,98,0.03,,,0.91,meteohub,2013-01-01 23:42:00,
2013-01-01 18:47:00,49.5,48.9,29.94,SSE,162,0.0,0.0,98,0.04,,,0.92,meteohub,2013-01-01 23:47:00,
2013-01-01 18:52:00,49.5,48.9,29.94,SSE,162,0.0,0.0,98,0.04,,,0.92,meteohub,2013-01-01 23:52:00,
2013-01-01 18:57:00,49.5,48.9,29.95,SSE,162,0.0,0.0,98,0.04,,,0.92,meteohub,2013-01-01 23:57:00,
2013-01-01 19:02:00,49.3,48.7,29.96,SSE,162,0.0,0.0,98,0.04,,,0.93,meteohub,2013-01-02 00:02:00,
2013-01-01 19:07:00,49.3,48.7,29.95,SSE,162,0.0,0.0,98,0.04,,,0.93,meteohub,2013-01-02 00:07:00,
2013-01-01 19:12:00,49.3,48.7,29.96,SSE,162,0.0,0.0,98,0.04,,,0.93,meteohub,2013-01-02 00:12:00,
2013-01-01 19:17:00,49.3,48.7,29.96,SSE,162,0.0,0.0,98,0.04,,,0.94,meteohub,2013-01-02 00:17:00,
2013-01-01 19:22:00,49.3,48.7,29.96,SSE,162,0.0,0.0,98,0.04,,,0.94,meteohub,2013-01-02 00:22:00,
2013-01-01 19:27:00,49.3,48.7,29.95,SSE,162,0.0,0.0,98,0.05,,,0.95,meteohub,2013-01-02 00:27:00,
2013-01-01 19:32:00,49.3,48.7,29.95,SSE,162,0.0,0.0,98,0.05,,,0.96,meteohub,2013-01-02 00:32:00,
2013-01-01 19:37:00,49.3,48.7,29.96,SSE,162,0.0,0.0,98,0.06,,,0.97,meteohub,2013-01-02 00:37:00,
2013-01-01 19:42:00,49.3,48.7,29.96,SSE,162,0.0,0.0,98,0.06,,,0.97,meteohub,2013-01-02 00:42:00,
2013-01-01 19:47:00,49.3,48.7,29.96,SSE,162,0.0,0.0,98,0.05,,,0.97,meteohub,2013-01-02 00:47:00,
2013-01-01 19:52:00,49.3,48.7,29.96,SSE,162,0.0,0.0,98,0.05,,,0.97,meteohub,2013-01-02 00:52:00,
2013-01-01 19:57:00,49.3,48.7,29.95,SSE,162,0.0,0.0,98,0.04,,,0.97,meteohub,2013-01-02 00:57:00,
2013-01-01 20:02:00,49.3,48.7,29.95,SSE,162,0.0,0.0,98,0.05,,,0.98,meteohub,2013-01-02 01:02:00,
2013-01-01 20:07:00,49.3,48.7,29.95,SSE,162,0.0,0.0,98,0.05,,,0.98,meteohub,2013-01-02 01:07:00,
2013-01-01 20:12:00,49.3,48.7,29.96,SSE,162,0.0,0.0,98,0.05,,,0.98,meteohub,2013-01-02 01:12:00,
2013-01-01 20:17:00,49.5,48.9,29.95,SSE,162,0.0,0.0,98,0.05,,,0.99,meteohub,2013-01-02 01:17:00,
2013-01-01 20:22:00,49.5,48.9,29.95,SSE,162,0.0,0.0,98,0.06,,,1.00,meteohub,2013-01-02 01:22:00,
2013-01-01 20:27:00,49.5,48.9,29.95,SSE,162,0.0,0.0,98,0.05,,,1.00,meteohub,2013-01-02 01:27:00,
2013-01-01 20:32:00,49.5,48.9,29.95,SSE,162,0.0,0.0,98,0.04,,,1.00,meteohub,2013-01-02 01:32:00,
2013-01-01 20:37:00,49.5,48.9,29.94,SSE,162,0.0,0.0,98,0.04,,,1.01,meteohub,2013-01-02 01:37:00,
2013-01-01 20:42:00,49.5,48.9,29.95,SSE,162,0.0,0.0,98,0.04,,,1.01,meteohub,2013-01-02 01:42:00,
2013-01-01 20:47:00,49.5,48.9,29.95,SSE,162,0.0,0.0,98,0.05,,,1.02,meteohub,2013-01-02 01:47:00,
2013-01-01 20:52:00,49.5,48.9,29.94,SSE,162,0.0,0.0,98,0.06,,,1.03,meteohub,2013-01-02 01:52:00,
2013-01-01 20:57:00,49.5,48.9,29.96,SSE,162,0.0,0.0,98,0.06,,,1.04,meteohub,2013-01-02 01:57:00,
2013-01-01 21:02:00,49.5,48.9,29.94,SSE,163,0.0,0.0,98,0.07,,,1.05,meteohub,2013-01-02 02:02:00,
2013-01-01 21:08:00,49.5,48.9,29.94,SSE,162,0.0,0.0,98,0.08,,,1.06,meteohub,2013-01-02 02:08:00,
2013-01-01 21:15:00,49.5,48.9,29.93,SSE,162,0.0,0.0,98,0.08,,,1.06,meteohub,2013-01-02 02:15:00,
2013-01-01 21:20:00,49.6,49.1,29.93,SSE,162,0.0,0.0,98,0.09,,,1.08,meteohub,2013-01-02 02:20:00,
2013-01-01 21:25:00,49.6,49.1,29.94,SSE,164,0.0,0.0,98,0.10,,,1.09,meteohub,2013-01-02 02:25:00,
2013-01-01 21:30:00,49.6,49.1,29.94,SSE,164,0.0,0.0,98,0.09,,,1.09,meteohub,2013-01-02 02:30:00,
2013-01-01 21:35:00,49.6,49.1,29.94,SSE,163,0.0,0.0,98,0.10,,,1.10,meteohub,2013-01-02 02:35:00,
2013-01-01 21:40:00,49.6,49.1,29.94,SSE,164,0.0,0.0,98,0.10,,,1.11,meteohub,2013-01-02 02:40:00,
2013-01-01 21:46:00,49.5,48.9,29.94,SSE,163,0.0,0.0,98,0.11,,,1.12,meteohub,2013-01-02 02:46:00,
2013-01-01 21:51:00,49.6,49.1,29.94,SSE,163,0.0,0.0,98,0.11,,,1.13,meteohub,2013-01-02 02:51:00,
2013-01-01 21:56:00,49.6,49.1,29.94,SE,142,0.0,1.0,98,0.12,,,1.14,meteohub,2013-01-02 02:56:00,
2013-01-01 22:01:00,49.6,49.1,29.94,SE,143,0.0,1.0,98,0.12,,,1.14,meteohub,2013-01-02 03:01:00,
2013-01-01 22:06:00,49.6,49.1,29.94,SE,142,0.0,0.0,98,0.09,,,1.14,meteohub,2013-01-02 03:06:00,
2013-01-01 22:11:00,49.6,49.1,29.94,SE,143,0.0,0.0,98,0.09,,,1.15,meteohub,2013-01-02 03:11:00,
2013-01-01 22:16:00,49.6,49.1,29.95,SE,143,0.0,0.0,98,0.08,,,1.16,meteohub,2013-01-02 03:16:00,
2013-01-01 22:21:00,49.6,49.1,29.95,SE,143,0.0,0.0,98,0.07,,,1.16,meteohub,2013-01-02 03:21:00,
2013-01-01 22:26:00,49.6,49.1,29.95,SE,142,0.0,0.0,98,0.07,,,1.17,meteohub,2013-01-02 03:26:00,
2013-01-01 22:31:00,49.6,49.1,29.94,SE,143,0.0,0.0,98,0.07,,,1.17,meteohub,2013-01-02 03:31:00,
2013-01-01 22:36:00,49.6,49.1,29.94,SE,143,0.0,0.0,98,0.06,,,1.18,meteohub,2013-01-02 03:36:00,
2013-01-01 22:41:00,49.6,49.1,29.94,SE,142,0.0,0.0,98,0.06,,,1.19,meteohub,2013-01-02 03:41:00,
2013-01-01 22:46:00,49.6,49.1,29.95,SE,142,0.0,0.0,98,0.06,,,1.19,meteohub,2013-01-02 03:46:00,
2013-01-01 22:51:00,49.6,49.1,29.94,SE,142,0.0,0.0,98,0.05,,,1.19,meteohub,2013-01-02 03:51:00,
2013-01-01 22:56:00,49.6,49.1,29.94,SE,143,0.0,1.0,98,0.05,,,1.19,meteohub,2013-01-02 03:56:00,
2013-01-01 23:01:00,49.6,49.1,29.94,SE,142,0.0,1.0,98,0.05,,,1.19,meteohub,2013-01-02 04:01:00,
2013-01-01 23:06:00,49.6,49.1,29.94,SE,143,0.0,1.0,98,0.05,,,1.20,meteohub,2013-01-02 04:06:00,
2013-01-01 23:11:00,49.6,49.1,29.95,SE,143,0.0,0.0,98,0.05,,,1.20,meteohub,2013-01-02 04:11:00,
2013-01-01 23:16:00,49.6,49.1,29.95,SE,142,0.0,0.0,98,0.04,,,1.20,meteohub,2013-01-02 04:16:00,
2013-01-01 23:21:00,49.6,49.1,29.94,SE,143,0.0,0.0,98,0.04,,,1.21,meteohub,2013-01-02 04:21:00,
2013-01-01 23:26:00,49.6,49.1,29.94,SE,143,0.0,0.0,98,0.04,,,1.21,meteohub,2013-01-02 04:26:00,
2013-01-01 23:31:00,49.6,49.1,29.93,SE,142,0.0,0.0,98,0.03,,,1.21,meteohub,2013-01-02 04:31:00,
2013-01-01 23:36:00,49.6,49.1,29.94,SE,142,0.0,0.0,98,0.02,,,1.21,meteohub,2013-01-02 04:36:00,
2013-01-01 23:41:00,49.8,49.3,29.93,SE,143,0.0,0.0,98,0.02,,,1.21,meteohub,2013-01-02 04:41:00,
2013-01-01 23:46:00,49.6,49.1,29.94,SE,143,0.0,0.0,98,0.02,,,1.21,meteohub,2013-01-02 04:46:00,
2013-01-01 23:51:00,49.6,49.1,29.94,SE,143,0.0,0.0,98,0.02,,,1.21,meteohub,2013-01-02 04:51:00,
2013-01-01 23:56:00,49.6,49.1,29.94,SE,143,0.0,0.0,98,0.01,,,0.00,meteohub,2013-01-02 04:56:00,